Time;durP1;ratioP1;P1;durP2;ratioP2;P2;SDS_P1;SDS_P2;PMS_P1;PMS_P2;Temp;Humidity;BMP_temperature;BMP_pressure;BME280_temperature;BME280_humidity;BME280_pressure;Samples;Min_cycle;Max_cycle;Signal;HPM_P1;HPM_P2
2022/10/17 00:02:21;;;;;;;;;8.75;8.00;;;;;19.60;71.64;101013.25;4963366;28;45203;-58
2022/10/17 00:04:46;;;;;;;;;11.50;8.75;;;;;19.57;71.51;101016.94;4963121;28;45464;-58
2022/10/17 00:07:11;;;;;;;;;11.75;8.00;;;;;19.59;71.66;101019.53;4962926;28;46286;-58
2022/10/17 00:09:36;;;;;;;;;10.00;10.00;;;;;19.59;71.56;101015.03;4961805;28;45297;-59
2022/10/17 00:12:03;;;;;;;;;10.25;9.00;;;;;19.59;71.43;101008.88;4963489;28;45407;-58
2022/10/17 00:14:28;;;;;;;;;8.25;8.25;;;;;19.61;70.83;101012.34;4963066;28;45538;-58
2022/10/17 00:16:53;;;;;;;;;9.25;9.25;;;;;19.62;71.29;101017.59;4962877;28;46111;-58
2022/10/17 00:19:19;;;;;;;;;9.00;8.00;;;;;19.63;70.72;101023.75;4962814;28;45243;-59
2022/10/17 00:21:44;;;;;;;;;7.00;7.00;;;;;19.61;70.59;101023.84;4963257;28;45255;-58
2022/10/17 00:24:09;;;;;;;;;9.00;9.00;;;;;19.61;70.70;101025.66;4962958;28;45219;-58
2022/10/17 00:26:35;;;;;;;;;10.00;9.25;;;;;19.60;70.87;101019.44;4962836;28;46106;-58
2022/10/17 00:29:00;;;;;;;;;9.75;8.75;;;;;19.63;70.27;101029.09;4962882;28;45252;-58
2022/10/17 00:31:25;;;;;;;;;9.50;8.50;;;;;19.61;70.44;101026.50;4962819;28;45270;-59
2022/10/17 00:33:51;;;;;;;;;6.75;6.75;;;;;19.60;69.93;101024.78;4961433;28;45301;-58
2022/10/17 00:36:25;;;;;;;;;7.50;7.50;;;;;19.57;70.49;101030.25;4962615;28;45397;-58
2022/10/17 00:38:53;;;;;;;;;9.50;8.00;;;;;19.57;70.02;101032.94;4962565;28;45257;-58
2022/10/17 00:41:23;;;;;;;;;7.00;7.00;;;;;19.54;69.73;101030.41;4962981;28;45259;-57
2022/10/17 00:43:54;;;;;;;;;9.25;9.00;;;;;19.54;69.50;101032.22;4961234;28;45260;-58
2022/10/17 00:46:21;;;;;;;;;8.00;8.00;;;;;19.52;69.76;101028.75;4962427;28;45315;-57
2022/10/17 00:48:50;;;;;;;;;8.25;8.25;;;;;19.52;69.28;101045.63;4960122;28;45454;-58
2022/10/17 00:51:18;;;;;;;;;7.00;7.00;;;;;19.52;69.79;101050.94;4962554;28;45184;-58
2022/10/17 00:53:44;;;;;;;;;8.75;7.50;;;;;19.49;69.33;101045.75;4961046;28;45444;-58
2022/10/17 00:56:10;;;;;;;;;7.50;7.50;;;;;19.50;69.43;101042.16;4962255;28;45361;-58
2022/10/17 00:58:36;;;;;;;;;8.50;8.50;;;;;19.51;68.59;101038.56;4962436;28;45358;-57
2022/10/17 01:01:02;;;;;;;;;7.00;7.00;;;;;19.51;69.19;101035.00;4962538;28;45323;-58
2022/10/17 01:03:27;;;;;;;;;7.75;7.75;;;;;19.52;69.04;101032.28;4962315;28;45341;-57
2022/10/17 01:05:53;;;;;;;;;8.25;8.25;;;;;19.53;68.78;101044.66;4962175;28;46283;-58
2022/10/17 01:08:19;;;;;;;;;7.50;6.50;;;;;19.54;69.01;101046.38;4961919;28;45175;-58
2022/10/17 01:11:36;;;;;;;;;7.00;7.00;;;;;19.55;68.71;101044.59;4962362;28;45239;-58
2022/10/17 01:14:07;;;;;;;;;8.25;8.25;;;;;19.54;68.77;101041.06;4892830;29;45219;-58
2022/10/17 01:16:32;;;;;;;;;7.50;7.50;;;;;19.52;68.36;101026.97;4950266;28;45333;-58
2022/10/17 01:19:32;;;;;;;;;6.25;6.00;;;;;19.51;68.72;101030.56;4962062;28;45239;-58
2022/10/17 01:22:20;;;;;;;;;9.00;8.00;;;;;19.49;68.67;101033.25;4962379;28;45369;-58
2022/10/17 01:25:00;;;;;;;;;6.75;6.75;;;;;19.47;68.38;101039.59;4961938;28;45291;-58
2022/10/17 01:27:59;;;;;;;;;4.50;3.25;;;;;19.46;68.44;101044.09;4961925;28;45224;-58
2022/10/17 01:30:43;;;;;;;;;6.25;6.00;;;;;19.45;68.48;101041.50;4935571;28;45421;-58
2022/10/17 01:33:20;;;;;;;;;7.25;5.50;;;;;19.43;68.48;101044.25;4961718;28;45275;-58
2022/10/17 01:36:05;;;;;;;;;6.75;6.75;;;;;19.44;68.87;101047.75;4961923;28;45324;-58
2022/10/17 01:38:43;;;;;;;;;8.50;8.25;;;;;19.43;69.15;101049.56;4921543;28;46141;-58
2022/10/17 01:41:21;;;;;;;;;9.25;7.75;;;;;19.44;68.93;101043.28;4961729;28;45256;-58
2022/10/17 01:43:54;;;;;;;;;7.25;6.50;;;;;19.45;69.03;101053.00;4962008;28;45179;-57
2022/10/17 01:46:36;;;;;;;;;8.00;7.75;;;;;19.45;68.48;101058.34;4961706;28;45430;-58
2022/10/17 01:49:04;;;;;;;;;8.25;6.25;;;;;19.43;69.01;101060.22;4961344;28;46279;-58
2022/10/17 01:51:37;;;;;;;;;10.00;6.25;;;;;19.42;68.72;101061.16;4961447;28;45241;-58
2022/10/17 01:54:13;;;;;;;;;6.75;6.00;;;;;19.42;68.40;101062.94;4961423;28;45265;-57
2022/10/17 01:56:42;;;;;;;;;7.50;6.50;;;;;19.40;68.47;101071.00;4961497;28;45505;-57
2022/10/17 01:59:19;;;;;;;;;9.00;8.00;;;;;19.38;68.37;101062.22;4961412;28;46117;-57
2022/10/17 02:01:49;;;;;;;;;7.50;7.00;;;;;19.37;68.87;101078.28;4961342;28;45382;-57
2022/10/17 02:04:15;;;;;;;;;8.25;8.25;;;;;19.33;69.32;101067.78;4961409;28;45214;-57
2022/10/17 02:06:40;;;;;;;;;9.00;8.25;;;;;19.31;68.80;101074.97;4961004;28;45309;-57
2022/10/17 02:09:24;;;;;;;;;6.00;5.50;;;;;19.31;68.81;101066.13;4961208;28;45345;-57
2022/10/17 02:12:02;;;;;;;;;7.50;6.50;;;;;19.28;68.83;101060.91;4960018;28;45223;-57
2022/10/17 02:14:58;;;;;;;;;8.00;8.00;;;;;19.28;68.59;101056.47;4961463;28;45388;-57
2022/10/17 02:17:49;;;;;;;;;5.75;5.75;;;;;19.27;68.49;101053.84;4960830;28;45413;-59
2022/10/17 02:20:27;;;;;;;;;7.75;7.00;;;;;19.26;68.45;101055.66;4959987;28;46403;-58
2022/10/17 02:23:20;;;;;;;;;5.00;5.00;;;;;19.26;68.74;101054.81;4959616;28;45604;-59
2022/10/17 02:25:58;;;;;;;;;14.75;10.50;;;;;19.25;68.52;101061.06;4961250;28;45290;-58
2022/10/17 02:28:40;;;;;;;;;8.00;6.75;;;;;19.23;68.12;101060.25;4961219;28;45251;-58
2022/10/17 02:31:13;;;;;;;;;7.25;7.00;;;;;19.20;68.32;101058.59;4959588;28;48145;-58
2022/10/17 02:33:44;;;;;;;;;10.75;8.25;;;;;19.19;68.03;101051.53;4960986;28;45298;-58
2022/10/17 02:36:21;;;;;;;;;8.75;7.25;;;;;19.19;68.52;101038.22;4960922;28;45258;-58
2022/10/17 02:38:48;;;;;;;;;8.75;6.25;;;;;19.16;67.90;101035.72;4960957;28;45327;-58
2022/10/17 02:41:16;;;;;;;;;6.50;6.50;;;;;19.15;68.05;101033.97;4960726;28;46223;-58
2022/10/17 02:43:44;;;;;;;;;7.00;7.00;;;;;19.16;67.73;101041.91;4960707;28;45247;-59
2022/10/17 02:46:19;;;;;;;;;10.25;7.00;;;;;19.16;67.82;101041.03;4960921;28;45334;-59
2022/10/17 02:48:49;;;;;;;;;7.25;6.50;;;;;19.17;67.95;101034.78;4960421;28;45287;-58
2022/10/17 02:51:32;;;;;;;;;9.25;7.75;;;;;19.16;68.00;101044.56;4960647;28;46155;-58
2022/10/17 02:54:22;;;;;;;;;5.25;5.00;;;;;19.13;67.99;101044.72;4960587;28;45592;-58
2022/10/17 02:57:09;;;;;;;;;6.50;6.50;;;;;19.14;67.74;101045.56;4960921;28;45616;-58
2022/10/17 02:59:36;;;;;;;;;8.00;6.50;;;;;19.14;67.42;101057.09;4959429;28;45494;-58
2022/10/17 03:02:04;;;;;;;;;8.75;6.75;;;;;19.14;67.39;101053.56;4960553;28;46180;-58
2022/10/17 03:04:29;;;;;;;;;6.75;5.25;;;;;19.15;67.12;101056.13;4960407;28;45291;-58
2022/10/17 03:06:54;;;;;;;;;10.25;7.50;;;;;19.13;67.23;101055.38;4960526;28;45366;-58
2022/10/17 03:09:20;;;;;;;;;6.00;6.00;;;;;19.13;67.39;101051.81;4960381;28;45511;-58
2022/10/17 03:11:45;;;;;;;;;7.50;7.50;;;;;19.12;67.43;101050.97;4962840;28;45196;-57
2022/10/17 03:14:10;;;;;;;;;6.50;6.00;;;;;19.12;66.91;101058.09;4962685;28;45285;-58
2022/10/17 03:16:36;;;;;;;;;6.50;6.50;;;;;19.09;66.85;101055.56;4964049;28;45179;-58
2022/10/17 03:19:01;;;;;;;;;8.50;8.00;;;;;19.07;67.13;101071.63;4963810;28;45381;-58
2022/10/17 03:21:26;;;;;;;;;9.00;7.00;;;;;19.05;67.06;101068.16;4963659;28;46277;-58
2022/10/17 03:23:52;;;;;;;;;7.75;5.75;;;;;19.03;66.95;101066.47;4962596;28;45328;-57
2022/10/17 03:26:17;;;;;;;;;9.00;7.25;;;;;18.98;66.94;101069.34;4963755;28;45626;-58
2022/10/17 03:28:42;;;;;;;;;7.00;7.00;;;;;18.95;66.58;101069.50;4963346;28;59200;-58
2022/10/17 03:31:10;;;;;;;;;7.50;7.50;;;;;18.94;66.97;101073.09;4963707;28;45429;-58
2022/10/17 03:33:36;;;;;;;;;6.25;6.25;;;;;18.92;67.01;101074.97;4963440;28;45330;-58
2022/10/17 03:36:09;;;;;;;;;5.00;5.00;;;;;18.91;66.99;101081.22;4963489;28;45327;-58
2022/10/17 03:38:35;;;;;;;;;7.00;6.50;;;;;18.88;66.59;101078.63;4963514;28;45389;-58
2022/10/17 03:41:01;;;;;;;;;6.00;6.00;;;;;18.87;66.69;101084.91;4963330;28;46129;-58
2022/10/17 03:43:26;;;;;;;;;6.25;6.00;;;;;18.89;67.13;101101.69;4963721;28;45324;-58
2022/10/17 03:45:52;;;;;;;;;5.50;5.50;;;;;18.87;66.77;101101.75;4963457;28;45439;-58
2022/10/17 03:48:17;;;;;;;;;6.00;6.00;;;;;18.89;66.32;101117.66;4963229;28;45260;-57
2022/10/17 03:50:42;;;;;;;;;8.50;6.00;;;;;18.87;66.82;101114.19;4963399;28;46284;-58
2022/10/17 03:53:08;;;;;;;;;4.50;4.50;;;;;18.90;66.63;101119.38;4963264;28;45290;-58
2022/10/17 03:55:33;;;;;;;;;5.25;5.25;;;;;18.91;66.29;101126.50;4963499;28;45231;-57
2022/10/17 03:57:58;;;;;;;;;3.75;3.75;;;;;18.90;66.49;101133.59;4963111;28;50820;-58
2022/10/17 04:00:24;;;;;;;;;8.00;6.25;;;;;18.92;66.32;101133.53;4963234;28;45798;-58
2022/10/17 04:02:49;;;;;;;;;6.75;6.75;;;;;18.91;66.58;101124.69;4963089;28;45390;-58
2022/10/17 04:05:14;;;;;;;;;7.00;6.25;;;;;18.91;66.47;101127.34;4962663;28;48891;-58
2022/10/17 04:07:40;;;;;;;;;6.00;6.00;;;;;18.92;66.33;101130.88;4962889;28;45491;-58
2022/10/17 04:10:06;;;;;;;;;6.25;6.00;;;;;18.91;66.37;101130.00;4961545;28;48284;-58
2022/10/17 04:12:31;;;;;;;;;6.75;6.50;;;;;18.89;65.93;101134.47;4963239;28;45256;-57
2022/10/17 04:14:57;;;;;;;;;6.25;5.50;;;;;18.91;66.13;101137.13;4963295;28;45223;-57
2022/10/17 04:17:22;;;;;;;;;6.50;6.50;;;;;18.91;65.95;101137.13;4961487;28;45521;-58
2022/10/17 04:19:50;;;;;;;;;7.00;6.00;;;;;18.90;65.99;101138.91;4962890;28;45205;-57
2022/10/17 04:22:16;;;;;;;;;7.50;6.50;;;;;18.87;65.99;101139.03;4960519;28;45275;-58
2022/10/17 04:24:41;;;;;;;;;9.25;8.00;;;;;18.88;66.24;101143.44;4961455;28;45417;-58
2022/10/17 04:27:07;;;;;;;;;7.75;7.25;;;;;18.86;66.11;101142.63;4963087;28;45461;-58
2022/10/17 04:29:32;;;;;;;;;7.25;7.00;;;;;18.88;65.84;101147.88;4962683;28;46158;-58
2022/10/17 04:31:57;;;;;;;;;6.25;6.00;;;;;18.85;65.93;101138.22;4962706;28;49304;-58
2022/10/17 04:34:23;;;;;;;;;6.25;6.25;;;;;18.83;66.21;101138.28;4962803;28;45373;-58
2022/10/17 04:36:48;;;;;;;;;6.00;6.00;;;;;18.84;66.16;101149.78;4961611;28;45268;-58
2022/10/17 04:39:13;;;;;;;;;5.75;5.50;;;;;18.84;66.14;101149.78;4962553;28;46410;-57
2022/10/17 04:41:39;;;;;;;;;5.00;5.00;;;;;18.86;66.14;101157.75;4962841;28;45235;-58
2022/10/17 04:44:04;;;;;;;;;8.00;7.00;;;;;18.84;65.88;101156.00;4962775;28;45453;-57
2022/10/17 04:46:29;;;;;;;;;6.00;6.00;;;;;18.86;66.12;101161.25;4962794;28;45405;-58
2022/10/17 04:48:55;;;;;;;;;8.25;8.25;;;;;18.86;65.90;101157.75;4962110;28;50709;-58
2022/10/17 04:51:20;;;;;;;;;6.50;6.00;;;;;18.88;65.66;101161.19;4962623;28;45208;-58
2022/10/17 04:53:45;;;;;;;;;7.25;5.00;;;;;18.88;65.56;101167.38;4962412;28;45490;-58
2022/10/17 04:56:13;;;;;;;;;5.50;5.50;;;;;18.89;65.95;101169.09;4962220;28;45196;-58
2022/10/17 04:58:40;;;;;;;;;4.75;4.00;;;;;18.89;65.74;101170.91;4962221;28;45551;-58
2022/10/17 05:01:08;;;;;;;;;5.25;4.50;;;;;18.89;65.38;101178.91;4962387;28;45400;-58
2022/10/17 05:03:34;;;;;;;;;5.75;5.25;;;;;18.90;65.57;101188.63;4962206;28;45294;-59
2022/10/17 05:06:06;;;;;;;;;8.25;8.25;;;;;18.88;65.70;101187.81;4962139;28;45409;-58
2022/10/17 05:08:31;;;;;;;;;7.75;6.50;;;;;18.86;65.61;101182.56;4962069;28;47905;-58
2022/10/17 05:10:56;;;;;;;;;8.50;6.00;;;;;18.87;65.78;101186.94;4961953;28;45296;-58
2022/10/17 05:13:22;;;;;;;;;6.25;6.25;;;;;18.89;65.70;101195.72;4962037;28;45307;-57
2022/10/17 05:15:47;;;;;;;;;6.00;6.00;;;;;18.89;65.83;101201.03;4962144;28;45274;-58
2022/10/17 05:18:12;;;;;;;;;7.00;6.25;;;;;18.91;65.79;101207.22;4961544;28;48510;-58
2022/10/17 05:20:38;;;;;;;;;5.25;5.25;;;;;18.91;65.46;101206.38;4962208;28;45251;-57
2022/10/17 05:23:03;;;;;;;;;7.75;6.50;;;;;18.91;65.83;101195.72;4962094;28;45496;-58
2022/10/17 05:25:28;;;;;;;;;7.00;6.00;;;;;18.93;65.52;101208.03;4962165;28;45190;-62
2022/10/17 05:27:54;;;;;;;;;7.75;7.00;;;;;18.93;65.52;101199.16;4961959;28;45423;-59
2022/10/17 05:30:19;;;;;;;;;7.50;7.50;;;;;18.93;65.84;101212.47;4962115;28;45239;-58
2022/10/17 05:32:44;;;;;;;;;5.50;5.50;;;;;18.94;65.50;101217.75;4961508;28;45316;-58
2022/10/17 05:35:10;;;;;;;;;6.50;6.50;;;;;18.92;65.72;101216.94;4950544;28;45587;-58
2022/10/17 05:37:35;;;;;;;;;8.50;7.50;;;;;18.94;65.44;101212.44;4952752;28;45181;-58
2022/10/17 05:40:00;;;;;;;;;6.50;6.00;;;;;18.95;65.68;101216.81;4956258;28;45455;-58
2022/10/17 05:42:26;;;;;;;;;11.50;9.50;;;;;18.96;65.77;101215.03;4961321;28;45434;-57
2022/10/17 05:44:51;;;;;;;;;7.00;7.00;;;;;18.97;66.02;101214.09;4956518;28;45487;-57
2022/10/17 05:47:16;;;;;;;;;10.25;6.50;;;;;18.95;65.91;101214.13;4961106;28;46039;-57
2022/10/17 05:49:42;;;;;;;;;8.25;7.25;;;;;18.94;65.99;101217.75;4961101;28;45160;-57
2022/10/17 05:52:07;;;;;;;;;9.00;7.00;;;;;18.95;65.92;101207.97;4956528;28;45403;-58
2022/10/17 05:54:33;;;;;;;;;7.00;6.00;;;;;18.96;66.21;101204.38;4960004;28;45639;-59
2022/10/17 05:56:58;;;;;;;;;7.50;7.50;;;;;18.95;65.93;101181.34;4961317;28;46515;-59
2022/10/17 05:59:25;;;;;;;;;10.25;7.75;;;;;18.98;66.14;101202.50;4961411;28;45359;-60
2022/10/17 06:01:51;;;;;;;;;7.00;7.00;;;;;18.98;66.29;101213.16;4961376;28;45346;-60
2022/10/17 06:04:16;;;;;;;;;7.25;6.75;;;;;18.96;66.57;101215.03;4961062;28;45279;-63
2022/10/17 06:06:42;;;;;;;;;7.00;7.00;;;;;18.96;67.00;101201.72;4960697;28;45464;-58
2022/10/17 06:09:07;;;;;;;;;8.75;6.75;;;;;18.95;67.25;101199.97;4952524;28;45508;-59
2022/10/17 06:11:33;;;;;;;;;6.00;6.00;;;;;18.94;67.39;101206.22;4960067;28;45311;-58
2022/10/17 06:13:59;;;;;;;;;6.25;6.25;;;;;18.90;67.16;101202.81;4961350;28;45572;-61
2022/10/17 06:16:24;;;;;;;;;7.25;7.25;;;;;18.91;67.15;101209.88;4957378;28;45408;-58
2022/10/17 06:18:49;;;;;;;;;8.00;7.50;;;;;18.91;67.25;101211.69;4961130;28;45321;-57
2022/10/17 06:21:19;;;;;;;;;7.75;7.25;;;;;18.92;67.34;101200.13;4960968;28;45461;-57
2022/10/17 06:23:44;;;;;;;;;7.00;6.50;;;;;18.92;67.66;101203.63;4960972;28;45659;-58
2022/10/17 06:26:09;;;;;;;;;8.50;6.00;;;;;18.93;67.55;101215.13;4959458;28;48397;-58
2022/10/17 06:28:35;;;;;;;;;7.75;7.50;;;;;18.94;67.71;101238.19;4958763;28;45378;-57
2022/10/17 06:31:09;;;;;;;;;7.50;7.50;;;;;18.93;67.35;101247.09;4961028;28;45560;-57
2022/10/17 06:33:35;;;;;;;;;7.00;7.00;;;;;18.92;67.72;101245.38;4960544;28;45377;-58
2022/10/17 06:36:00;;;;;;;;;7.25;6.75;;;;;18.92;67.88;101262.22;4956882;28;45295;-57
2022/10/17 06:38:25;;;;;;;;;6.00;6.00;;;;;18.91;67.49;101259.63;4960571;28;45342;-57
2022/10/17 06:40:52;;;;;;;;;8.50;7.00;;;;;18.91;67.74;101264.94;4960892;28;45541;-56
2022/10/17 06:43:18;;;;;;;;;9.50;7.00;;;;;18.89;67.71;101264.09;4960887;28;45604;-56
2022/10/17 06:45:46;;;;;;;;;7.50;7.50;;;;;18.88;68.19;101271.22;4959461;28;45451;-58
2022/10/17 06:48:11;;;;;;;;;7.25;7.25;;;;;18.89;68.06;101274.75;4960446;28;45259;-56
2022/10/17 06:50:37;;;;;;;;;8.50;7.50;;;;;18.91;67.74;101276.44;4960474;28;46189;-57
2022/10/17 06:53:02;;;;;;;;;10.75;8.00;;;;;18.90;67.72;101296.00;4960351;28;45508;-55
2022/10/17 06:55:29;;;;;;;;;8.75;7.00;;;;;18.89;67.69;101286.25;4960502;28;46150;-57
2022/10/17 06:57:55;;;;;;;;;7.75;7.75;;;;;18.90;68.16;101289.81;4960616;28;45342;-57
2022/10/17 07:00:22;;;;;;;;;7.75;7.50;;;;;18.90;68.52;101304.00;4960480;28;45356;-57
2022/10/17 07:02:47;;;;;;;;;6.00;6.00;;;;;18.90;67.79;101306.66;4960562;28;45463;-57
2022/10/17 07:05:13;;;;;;;;;9.00;9.00;;;;;18.90;68.25;101308.44;4960047;28;46213;-57
2022/10/17 07:07:38;;;;;;;;;6.00;6.00;;;;;18.89;67.96;101309.38;4958604;28;45401;-56
2022/10/17 07:10:07;;;;;;;;;8.75;7.50;;;;;18.91;67.65;101313.72;4957142;28;45572;-57
2022/10/17 07:12:33;;;;;;;;;8.00;8.00;;;;;18.92;67.88;101322.59;4953788;28;45601;-52
2022/10/17 07:14:58;;;;;;;;;6.00;6.00;;;;;18.94;67.72;101332.25;4957286;28;45325;-56
2022/10/17 07:17:23;;;;;;;;;6.00;6.00;;;;;18.96;67.55;101350.84;4958404;28;50819;-58
2022/10/17 07:19:49;;;;;;;;;10.00;8.00;;;;;18.94;68.19;101345.56;4958193;28;45847;-58
2022/10/17 07:22:14;;;;;;;;;10.75;7.50;;;;;18.94;67.70;101353.56;4956941;28;45513;-58
2022/10/17 07:24:39;;;;;;;;;8.50;7.50;;;;;18.96;68.20;101356.16;4957271;28;45298;-58
2022/10/17 07:27:05;;;;;;;;;8.75;6.50;;;;;18.97;67.93;101371.22;4958789;28;45311;-59
2022/10/17 07:29:30;;;;;;;;;10.50;8.50;;;;;18.98;67.78;101372.94;4958594;28;45583;-57
2022/10/17 07:31:55;;;;;;;;;11.00;10.00;;;;;18.97;68.06;101361.41;4957830;28;47026;-56
2022/10/17 07:34:21;;;;;;;;;10.25;6.25;;;;;19.00;67.82;101381.72;4955943;28;47914;-56
2022/10/17 07:36:46;;;;;;;;;8.00;8.00;;;;;19.02;68.40;101377.22;4957699;28;45356;-57
2022/10/17 07:39:12;;;;;;;;;9.00;7.50;;;;;19.03;68.20;101378.97;4958009;28;45618;-57
2022/10/17 07:41:37;;;;;;;;;9.00;8.00;;;;;19.04;68.60;101380.69;4956590;28;45682;-58
2022/10/17 07:44:03;;;;;;;;;7.00;7.00;;;;;19.09;68.32;101408.00;4956692;28;46266;-57
2022/10/17 07:46:28;;;;;;;;;7.50;7.25;;;;;19.13;68.29;101406.97;4958350;28;45347;-57
2022/10/17 07:48:53;;;;;;;;;6.00;6.00;;;;;19.17;68.52;101411.25;4958336;28;45305;-57
2022/10/17 07:51:20;;;;;;;;;9.75;7.00;;;;;19.20;67.91;101417.38;4957252;28;45735;-57
2022/10/17 07:53:46;;;;;;;;;7.50;7.50;;;;;19.22;68.28;101424.38;4957211;28;46173;-57
2022/10/17 07:56:11;;;;;;;;;8.00;8.00;;;;;19.26;68.08;101433.13;4958388;28;45481;-59
2022/10/17 07:58:37;;;;;;;;;10.25;9.00;;;;;19.27;68.27;101435.72;4960637;28;45414;-58
2022/10/17 08:01:05;;;;;;;;;12.75;11.25;;;;;19.28;68.61;101444.56;4960998;28;45592;-58
2022/10/17 08:03:30;;;;;;;;;10.50;8.50;;;;;19.26;68.60;101446.44;4960383;28;46294;-58
2022/10/17 08:05:58;;;;;;;;;9.50;8.50;;;;;19.25;68.45;101434.06;4960939;28;45300;-58
2022/10/17 08:08:23;;;;;;;;;9.50;7.25;;;;;19.23;68.25;101450.09;4961255;28;45499;-57
2022/10/17 08:10:48;;;;;;;;;7.50;7.50;;;;;19.24;68.29;101446.47;4958356;28;45764;-57
2022/10/17 08:13:14;;;;;;;;;9.00;7.00;;;;;19.24;68.74;101446.47;4960376;28;46079;-57
2022/10/17 08:15:39;;;;;;;;;9.50;7.75;;;;;19.24;68.82;101442.97;4961320;28;45572;-57
2022/10/17 08:18:05;;;;;;;;;10.00;8.50;;;;;19.20;68.82;101452.88;4961173;28;45776;-57
2022/10/17 08:20:30;;;;;;;;;11.50;9.25;;;;;19.22;69.21;101456.34;4960819;28;45760;-57
2022/10/17 08:22:55;;;;;;;;;11.00;8.00;;;;;19.25;69.45;101460.69;4960589;28;45772;-57
2022/10/17 08:25:21;;;;;;;;;10.50;8.75;;;;;19.28;69.82;101466.78;4961119;28;45380;-58
2022/10/17 08:27:47;;;;;;;;;9.25;8.00;;;;;19.33;70.03;101463.91;4961453;28;45463;-58
2022/10/17 08:30:13;;;;;;;;;8.25;7.25;;;;;19.38;69.70;101471.72;4960943;28;45385;-59
2022/10/17 08:32:38;;;;;;;;;6.50;6.00;;;;;19.41;69.09;101479.63;4960139;28;45421;-58
2022/10/17 08:35:04;;;;;;;;;11.75;9.75;;;;;19.40;69.27;101476.06;4958146;28;45439;-58
2022/10/17 08:37:30;;;;;;;;;11.25;9.50;;;;;19.38;69.59;101482.38;4960873;28;45466;-58
2022/10/17 08:39:55;;;;;;;;;8.50;8.25;;;;;19.36;69.51;101481.56;4958389;28;45570;-58
2022/10/17 08:42:45;;;;;;;;;11.50;8.75;;;;;19.40;69.64;101477.88;4957920;28;56755;-59
2022/10/17 08:45:20;;;;;;;;;10.25;8.00;;;;;19.43;69.46;101483.06;4962412;28;45163;-58
2022/10/17 08:47:51;;;;;;;;;8.00;8.00;;;;;19.45;69.56;101483.88;4962516;28;45388;-58
2022/10/17 08:50:40;;;;;;;;;11.75;8.50;;;;;19.51;69.73;101483.66;4962056;28;45350;-58
2022/10/17 08:53:27;;;;;;;;;12.25;10.50;;;;;19.55;69.26;101482.59;4962060;28;45168;-58
2022/10/17 08:55:53;;;;;;;;;12.00;10.25;;;;;19.57;69.40;101488.72;4960827;28;45541;-57
2022/10/17 08:58:22;;;;;;;;;10.00;8.00;;;;;19.58;69.47;101482.44;4962477;28;45304;-58
2022/10/17 09:01:28;;;;;;;;;12.75;10.25;;;;;19.60;69.48;101501.94;4962234;28;45509;-58
2022/10/17 09:04:11;;;;;;;;;7.75;7.75;;;;;19.59;69.32;101518.84;4962008;28;46543;-58
2022/10/17 09:06:44;;;;;;;;;11.75;10.25;;;;;19.60;69.42;101530.41;4961850;28;45528;-58
2022/10/17 09:09:31;;;;;;;;;9.00;8.25;;;;;19.60;69.44;101546.38;4961211;28;45391;-57
2022/10/17 09:12:17;;;;;;;;;11.75;10.00;;;;;19.58;69.76;101564.22;4944697;28;45432;-58
2022/10/17 09:15:02;;;;;;;;;8.25;8.25;;;;;19.51;70.07;101578.72;4942665;28;45354;-58
2022/10/17 09:17:38;;;;;;;;;10.50;8.50;;;;;19.44;70.55;101572.75;4958719;28;45418;-57
2022/10/17 09:20:13;;;;;;;;;10.50;9.75;;;;;19.40;71.27;101577.34;4962286;28;45231;-57
2022/10/17 09:23:25;;;;;;;;;10.00;9.50;;;;;19.38;71.71;101583.66;4962000;28;45172;-57
2022/10/17 09:25:57;;;;;;;;;12.75;10.25;;;;;19.32;71.65;101582.09;4943081;28;46984;-57
2022/10/17 09:28:34;;;;;;;;;8.00;8.00;;;;;19.32;71.92;101590.94;4960584;28;45369;-58
2022/10/17 09:31:10;;;;;;;;;13.00;12.75;;;;;19.31;72.64;101594.53;4961929;28;45346;-58
2022/10/17 09:33:41;;;;;;;;;11.50;9.00;;;;;19.31;72.03;101594.53;4961581;28;45686;-58
2022/10/17 09:36:16;;;;;;;;;9.75;9.75;;;;;19.30;72.52;101598.13;4961474;28;46081;-58
2022/10/17 09:38:47;;;;;;;;;10.00;9.75;;;;;19.31;72.89;101605.19;4961781;28;45274;-57
2022/10/17 09:41:19;;;;;;;;;16.25;13.50;;;;;19.26;72.83;101607.16;4949145;28;45421;-58
2022/10/17 09:43:46;;;;;;;;;11.25;9.50;;;;;19.16;74.77;101606.63;4953699;28;45472;-58
2022/10/17 09:46:21;;;;;;;;;11.25;10.25;;;;;19.11;75.02;101602.41;4952972;28;45476;-58
2022/10/17 09:48:52;;;;;;;;;15.25;11.75;;;;;19.09;76.27;101604.25;4947874;28;45414;-58
2022/10/17 09:51:18;;;;;;;;;11.50;11.50;;;;;19.10;75.78;101598.00;4961882;28;45254;-58
2022/10/17 09:53:50;;;;;;;;;10.75;10.00;;;;;19.13;75.33;101612.09;4961257;28;45496;-58
2022/10/17 09:56:18;;;;;;;;;11.75;10.75;;;;;19.16;76.27;101611.09;4961692;28;45413;-58
2022/10/17 09:58:49;;;;;;;;;20.50;12.00;;;;;19.17;76.33;101605.72;4961197;28;45338;-58
2022/10/17 10:01:19;;;;;;;;;13.25;11.50;;;;;19.17;76.62;101603.03;4961830;28;45364;-59
2022/10/17 10:03:44;;;;;;;;;8.50;8.50;;;;;19.21;76.28;101595.81;4961070;28;45279;-58
2022/10/17 10:06:17;;;;;;;;;11.50;11.25;;;;;19.24;76.45;101598.34;4960905;28;46372;-58
2022/10/17 10:08:54;;;;;;;;;12.50;12.00;;;;;19.27;76.51;101600.91;4961244;28;45235;-58
2022/10/17 10:11:42;;;;;;;;;12.50;12.50;;;;;19.33;76.58;101595.38;4947701;28;45343;-59
2022/10/17 10:14:20;;;;;;;;;12.25;10.75;;;;;19.38;76.17;101603.16;4941990;28;45686;-58
2022/10/17 10:16:47;;;;;;;;;10.50;10.50;;;;;19.39;75.71;101618.22;4950988;28;45461;-58
2022/10/17 10:19:36;;;;;;;;;11.00;8.75;;;;;19.39;76.03;101628.03;4959965;28;45272;-58
2022/10/17 10:22:03;;;;;;;;;12.50;11.00;;;;;19.38;76.10;101645.81;4961464;28;45501;-58
2022/10/17 10:24:29;;;;;;;;;12.25;11.25;;;;;19.37;75.98;101653.84;4960906;28;45492;-58
2022/10/17 10:26:58;;;;;;;;;13.00;10.00;;;;;19.36;76.66;101644.13;4960991;28;46269;-58
2022/10/17 10:29:31;;;;;;;;;10.25;10.25;;;;;19.33;77.31;101669.09;4960892;28;45362;-58
2022/10/17 10:32:19;;;;;;;;;11.00;10.00;;;;;19.28;78.05;101657.72;4960914;28;45255;-58
2022/10/17 10:34:51;;;;;;;;;17.00;13.25;;;;;19.25;78.59;101641.88;4960767;28;45543;-57
2022/10/17 10:37:27;;;;;;;;;13.75;11.25;;;;;19.26;78.39;101643.63;4960801;28;47257;-59
2022/10/17 10:40:06;;;;;;;;;11.75;10.25;;;;;19.30;77.92;101655.88;4960805;28;46537;-58
2022/10/17 10:42:39;;;;;;;;;11.25;10.75;;;;;19.30;78.47;101658.56;4961044;28;45445;-59
2022/10/17 10:45:21;;;;;;;;;12.00;12.00;;;;;19.28;78.75;101671.94;4959706;28;45263;-59
2022/10/17 10:47:58;;;;;;;;;12.75;11.75;;;;;19.26;78.48;101684.44;4959137;28;47564;-59
2022/10/17 10:50:27;;;;;;;;;8.50;8.50;;;;;19.22;78.53;101681.94;4960864;28;45389;-59
2022/10/17 10:53:10;;;;;;;;;10.50;8.50;;;;;19.20;78.47;101684.66;4960679;28;45389;-58
2022/10/17 10:55:43;;;;;;;;;15.00;11.75;;;;;19.16;79.12;101681.22;4960735;28;45369;-59
2022/10/17 10:58:53;;;;;;;;;13.25;13.25;;;;;19.16;78.92;101699.00;4960715;28;46541;-59
2022/10/17 11:01:31;;;;;;;;;13.25;13.25;;;;;19.16;79.01;101697.22;4960769;28;45421;-59
2022/10/17 11:04:12;;;;;;;;;11.50;9.50;;;;;19.17;79.21;101692.78;4960389;28;45255;-59
2022/10/17 11:06:41;;;;;;;;;10.25;9.00;;;;;19.17;79.45;101692.78;4960559;28;45318;-59
2022/10/17 11:09:15;;;;;;;;;12.00;12.00;;;;;19.17;79.91;101693.63;4960098;28;46984;-59
2022/10/17 11:11:51;;;;;;;;;19.00;16.50;;;;;19.21;79.53;101704.19;4948715;28;45475;-59
2022/10/17 11:14:22;;;;;;;;;10.75;9.50;;;;;19.24;80.30;101710.25;4940027;28;45271;-58
2022/10/17 11:17:16;;;;;;;;;16.25;15.75;;;;;19.24;80.05;101707.59;4950526;28;45496;-59
2022/10/17 11:19:59;;;;;;;;;15.25;13.50;;;;;19.31;79.89;101708.25;4960463;28;46006;-59
2022/10/17 11:22:30;;;;;;;;;12.75;12.75;;;;;19.33;80.06;101715.28;4958966;28;45922;-59
2022/10/17 11:25:13;;;;;;;;;8.25;8.00;;;;;19.35;80.10;101720.53;4960086;28;45244;-59
2022/10/17 11:27:39;;;;;;;;;11.50;11.50;;;;;19.36;79.62;101714.28;4960336;28;45299;-58
2022/10/17 11:30:05;;;;;;;;;11.75;11.75;;;;;19.37;80.25;101718.72;4956707;28;45257;-59
2022/10/17 11:32:45;;;;;;;;;11.75;11.75;;;;;19.29;80.19;101702.97;4943079;28;45294;-59
2022/10/17 11:35:22;;;;;;;;;13.50;11.75;;;;;19.27;80.58;101694.19;4950244;28;45326;-59
2022/10/17 11:38:20;;;;;;;;;14.50;13.00;;;;;19.27;80.53;101683.50;4963434;28;45422;-59